createdAt,value
2023-02-21T00:01:56.293Z,2.73
2023-02-21T00:04:41.723Z,2.83
2023-02-21T00:07:27.324Z,3.20
2023-02-21T00:10:12.632Z,2.60
2023-02-21T00:12:58.550Z,2.83
2023-02-21T00:15:43.820Z,3.07
2023-02-21T00:18:29.620Z,2.63
2023-02-21T00:21:15.309Z,2.50
2023-02-21T00:24:00.918Z,2.40
2023-02-21T00:26:46.620Z,2.30
2023-02-21T00:29:32.211Z,2.30
2023-02-21T00:32:17.632Z,2.50
2023-02-21T00:35:03.278Z,2.10
2023-02-21T00:37:49.057Z,2.33
2023-02-21T00:40:35.058Z,2.10
2023-02-21T00:43:21.547Z,2.40
2023-02-21T00:46:07.171Z,2.93
2023-02-21T00:48:52.861Z,2.50
2023-02-21T00:51:38.516Z,2.40
2023-02-21T00:54:23.984Z,2.30
2023-02-21T00:57:09.815Z,2.67
2023-02-21T00:59:55.354Z,2.13
2023-02-21T01:02:41.015Z,2.53
2023-02-21T01:05:27.229Z,2.80
2023-02-21T01:08:12.741Z,2.70
2023-02-21T01:10:59.699Z,2.37
2023-02-21T01:13:45.049Z,2.80
2023-02-21T01:16:31.102Z,2.50
2023-02-21T01:19:16.313Z,2.50
2023-02-21T01:22:01.794Z,3.03
2023-02-21T01:24:47.221Z,2.80
2023-02-21T01:27:33.101Z,2.87
2023-02-21T01:30:18.641Z,2.33
2023-02-21T01:33:05.043Z,2.50
2023-02-21T01:35:50.533Z,2.30
2023-02-21T01:38:36.041Z,2.67
2023-02-21T01:41:21.594Z,2.63
2023-02-21T01:44:15.886Z,2.70
2023-02-21T01:47:01.046Z,2.73
2023-02-21T01:49:47.451Z,3.17
2023-02-21T01:52:33.044Z,2.87
2023-02-21T01:55:18.651Z,2.40
2023-02-21T01:58:04.846Z,2.50
2023-02-21T02:00:50.457Z,2.93
2023-02-21T02:03:37.068Z,2.90
2023-02-21T02:06:23.639Z,2.63
2023-02-21T02:09:09.212Z,2.83
2023-02-21T02:12:14.384Z,2.87
2023-02-21T02:14:41.288Z,3.20
2023-02-21T02:17:30.125Z,3.27
2023-02-21T02:20:00.099Z,3.23
2023-02-21T02:22:33.116Z,2.90
2023-02-21T02:25:12.399Z,3.13
2023-02-21T02:27:49.496Z,2.93
2023-02-21T02:30:35.524Z,3.43
2023-02-21T02:33:06.096Z,3.67
2023-02-21T02:35:39.911Z,3.83
2023-02-21T02:38:16.002Z,4.10
2023-02-21T02:40:50.911Z,3.33
2023-02-21T02:43:38.609Z,4.57
2023-02-21T02:46:15.709Z,4.23
2023-02-21T02:48:48.574Z,3.30
2023-02-21T02:51:16.685Z,3.60
2023-02-21T02:53:44.632Z,3.33
2023-02-21T02:56:14.996Z,3.30
2023-02-21T02:58:46.631Z,3.23
2023-02-21T03:01:13.759Z,3.60
2023-02-21T03:03:53.093Z,3.20
2023-02-21T03:06:55.531Z,3.43
2023-02-21T03:09:30.965Z,2.90
2023-02-21T03:12:04.113Z,3.30
2023-02-21T03:14:37.399Z,3.43
2023-02-21T03:17:09.475Z,2.80
2023-02-21T03:19:39.071Z,3.00
2023-02-21T03:22:08.628Z,3.13
2023-02-21T03:24:38.692Z,3.10
2023-02-21T03:27:07.207Z,3.00
2023-02-21T03:29:52.713Z,3.10
2023-02-21T03:32:35.612Z,3.50
2023-02-21T03:35:03.835Z,3.23
2023-02-21T03:37:39.047Z,2.70
2023-02-21T03:40:11.115Z,2.67
2023-02-21T03:42:38.358Z,2.97
2023-02-21T03:45:05.758Z,2.67
2023-02-21T03:47:33.259Z,2.40
2023-02-21T03:50:00.300Z,2.53
2023-02-21T03:52:27.589Z,2.43
2023-02-21T03:54:54.666Z,2.10
2023-02-21T03:57:23.688Z,2.37
2023-02-21T03:59:50.766Z,2.40
2023-02-21T04:02:18.951Z,2.50
2023-02-21T04:04:48.471Z,2.20
2023-02-21T04:07:18.698Z,2.00
2023-02-21T04:09:46.906Z,1.87
2023-02-21T04:12:18.645Z,1.80
2023-02-21T04:14:45.644Z,1.60
2023-02-21T04:17:12.770Z,1.73
2023-02-21T04:19:40.467Z,2.00
2023-02-21T04:22:07.691Z,1.90
2023-02-21T04:24:35.249Z,1.70
2023-02-21T04:27:02.525Z,1.70
2023-02-21T04:29:33.544Z,2.00
2023-02-21T04:32:00.569Z,2.27
2023-02-21T04:34:27.874Z,1.60
2023-02-21T04:36:54.857Z,1.87
2023-02-21T04:39:22.037Z,2.20
2023-02-21T04:41:50.011Z,2.13
2023-02-21T04:44:18.417Z,1.90
2023-02-21T04:46:45.519Z,2.00
2023-02-21T04:49:13.015Z,1.87
2023-02-21T04:51:39.999Z,2.10
2023-02-21T04:54:08.051Z,2.10
2023-02-21T04:56:35.045Z,2.20
2023-02-21T04:59:01.960Z,3.63
2023-02-21T05:01:30.909Z,2.30
2023-02-21T05:03:58.608Z,2.13
2023-02-21T05:06:26.597Z,1.80
2023-02-21T05:08:53.578Z,2.30
2023-02-21T05:11:21.288Z,1.47
2023-02-21T05:13:48.592Z,1.77
2023-02-21T05:16:15.571Z,1.80
2023-02-21T05:18:43.073Z,2.20
2023-02-21T05:21:10.296Z,1.97
2023-02-21T05:23:38.667Z,1.83
2023-02-21T05:26:10.282Z,1.80
2023-02-21T05:28:37.473Z,2.43
2023-02-21T05:31:04.802Z,1.97
2023-02-21T05:33:31.864Z,1.77
2023-02-21T05:35:58.909Z,2.13
2023-02-21T05:38:26.384Z,2.10
2023-02-21T05:40:53.260Z,2.70
2023-02-21T05:43:20.172Z,2.30
2023-02-21T05:45:47.069Z,2.90
2023-02-21T05:48:13.961Z,2.87
2023-02-21T05:50:41.000Z,2.97
2023-02-21T05:53:10.655Z,2.43
2023-02-21T05:55:37.856Z,3.00
2023-02-21T05:58:04.793Z,2.53
2023-02-21T06:00:32.071Z,2.67
2023-02-21T06:02:58.863Z,3.10
2023-02-21T06:05:26.028Z,2.83
2023-02-21T06:07:52.883Z,3.20
2023-02-21T06:10:20.016Z,3.47
2023-02-21T06:12:46.902Z,3.17
2023-02-21T06:15:14.089Z,3.70
2023-02-21T06:17:41.569Z,4.13
2023-02-21T06:20:11.158Z,4.43
2023-02-21T06:22:38.015Z,3.83
2023-02-21T06:25:05.005Z,4.30
2023-02-21T06:27:31.874Z,4.23
2023-02-21T06:29:58.757Z,3.73
2023-02-21T06:32:25.674Z,3.97
2023-02-21T06:34:52.500Z,4.63
2023-02-21T06:37:19.701Z,4.50
2023-02-21T06:39:46.771Z,4.70
2023-02-21T06:42:15.080Z,5.23
2023-02-21T06:44:45.463Z,4.97
2023-02-21T06:47:12.422Z,5.33
2023-02-21T06:49:39.790Z,5.43
2023-02-21T06:52:07.095Z,5.53
2023-02-21T06:54:33.990Z,6.17
2023-02-21T06:57:01.947Z,6.80
2023-02-21T06:59:29.185Z,7.30
2023-02-21T07:01:56.824Z,7.67
2023-02-21T07:04:24.595Z,6.97
2023-02-21T07:06:51.805Z,6.90
2023-02-21T07:09:18.637Z,6.90
2023-02-21T07:11:47.189Z,7.17
2023-02-21T07:14:14.524Z,5.80
2023-02-21T07:16:41.579Z,7.10
2023-02-21T07:19:08.431Z,7.30
2023-02-21T07:21:35.403Z,7.77
2023-02-21T07:24:02.237Z,7.33
2023-02-21T07:26:29.517Z,7.97
2023-02-21T07:28:56.390Z,7.37
2023-02-21T07:31:23.660Z,6.07
2023-02-21T07:33:50.704Z,7.43
2023-02-21T07:36:17.990Z,6.93
2023-02-21T07:38:44.785Z,6.50
2023-02-21T07:41:11.960Z,6.23
2023-02-21T07:43:39.452Z,6.80
2023-02-21T07:46:09.881Z,6.60
2023-02-21T07:48:36.769Z,6.33
2023-02-21T07:51:03.661Z,6.70
2023-02-21T07:53:30.504Z,5.83
2023-02-21T07:55:57.298Z,6.70
2023-02-21T07:58:24.180Z,6.97
2023-02-21T08:00:51.110Z,7.10
2023-02-21T08:03:18.314Z,7.30
2023-02-21T08:05:47.101Z,6.87
2023-02-21T08:08:15.125Z,7.70
2023-02-21T08:10:41.931Z,7.87
2023-02-21T08:13:08.910Z,7.33
2023-02-21T08:15:35.768Z,6.40
2023-02-21T08:18:02.589Z,7.93
2023-02-21T08:20:29.678Z,7.20
2023-02-21T08:22:56.488Z,7.23
2023-02-21T08:25:23.380Z,7.47
2023-02-21T08:27:53.897Z,8.00
2023-02-21T08:30:21.176Z,7.60
2023-02-21T08:32:48.785Z,7.10
2023-02-21T08:35:16.196Z,8.27
2023-02-21T08:37:46.802Z,7.90
2023-02-21T08:40:14.458Z,7.77
2023-02-21T08:42:41.808Z,7.57
2023-02-21T08:45:15.060Z,6.27
2023-02-21T08:47:41.899Z,7.00
2023-02-21T08:50:09.071Z,6.43
2023-02-21T08:52:35.947Z,6.33
2023-02-21T08:55:02.800Z,5.83
2023-02-21T08:57:29.615Z,6.00
2023-02-21T08:59:56.591Z,5.90
2023-02-21T09:02:31.582Z,6.30
2023-02-21T09:05:00.134Z,6.97
2023-02-21T09:07:28.812Z,5.40
2023-02-21T09:09:55.628Z,6.23
2023-02-21T09:12:22.710Z,6.60
2023-02-21T09:14:49.503Z,5.50
2023-02-21T09:17:16.514Z,5.83
2023-02-21T09:19:45.286Z,5.70
2023-02-21T09:22:12.191Z,5.20
2023-02-21T09:24:39.284Z,5.33
2023-02-21T09:27:06.528Z,5.50
2023-02-21T09:29:45.334Z,5.83
2023-02-21T09:32:13.297Z,5.17
2023-02-21T09:34:40.172Z,5.53
2023-02-21T09:37:07.297Z,5.80
2023-02-21T09:39:34.252Z,5.90
2023-02-21T09:42:01.223Z,6.57
2023-02-21T09:44:29.258Z,6.67
2023-02-21T09:47:02.002Z,7.23
2023-02-21T09:49:31.665Z,5.80
2023-02-21T09:51:59.798Z,7.17
2023-02-21T09:54:32.438Z,7.63
2023-02-21T09:57:01.533Z,7.20
2023-02-21T09:59:29.118Z,8.00
2023-02-21T10:02:08.358Z,7.53
2023-02-21T10:04:35.881Z,7.57
2023-02-21T10:07:02.677Z,5.43
2023-02-21T10:09:32.318Z,7.17
2023-02-21T10:12:20.884Z,5.80
2023-02-21T10:15:06.651Z,6.10
2023-02-21T10:18:11.898Z,3.03
2023-02-21T10:20:40.101Z,3.20
2023-02-21T10:23:17.476Z,4.07
2023-02-21T10:25:45.680Z,4.73
2023-02-21T10:28:19.946Z,5.20
2023-02-21T10:30:48.070Z,5.63
2023-02-21T10:33:15.088Z,5.80
2023-02-21T10:35:42.020Z,5.37
2023-02-21T10:38:19.120Z,5.30
2023-02-21T10:40:52.371Z,5.70
2023-02-21T10:43:28.340Z,5.80
2023-02-21T10:46:18.271Z,4.50
2023-02-21T10:48:47.246Z,4.67
2023-02-21T10:51:15.940Z,4.83
2023-02-21T10:53:46.967Z,3.90
2023-02-21T10:56:19.808Z,4.23
2023-02-21T10:58:46.656Z,4.10
2023-02-21T11:01:19.598Z,4.10
2023-02-21T11:03:47.372Z,4.10
2023-02-21T11:06:23.344Z,4.67
2023-02-21T11:08:50.285Z,6.30
2023-02-21T11:11:17.169Z,5.10
2023-02-21T11:13:44.403Z,5.77
2023-02-21T11:16:16.052Z,6.03
2023-02-21T11:18:43.396Z,6.00
2023-02-21T11:21:13.900Z,6.13
2023-02-21T11:23:58.146Z,6.10
2023-02-21T11:26:25.430Z,6.80
2023-02-21T11:28:52.441Z,6.27
2023-02-21T11:31:31.086Z,5.47
2023-02-21T11:33:59.870Z,10.43
2023-02-21T11:36:28.276Z,4.90
2023-02-21T11:39:14.826Z,3.80
2023-02-21T11:41:47.405Z,4.97
2023-02-21T11:44:35.358Z,3.10
2023-02-21T11:47:16.876Z,2.80
2023-02-21T11:49:52.083Z,3.47
2023-02-21T11:52:23.090Z,3.13
2023-02-21T11:54:49.915Z,5.70
2023-02-21T11:57:39.796Z,4.03
2023-02-21T12:00:08.314Z,3.40
2023-02-21T12:03:05.883Z,2.90
2023-02-21T12:05:32.808Z,3.17
2023-02-21T12:08:02.344Z,3.67
2023-02-21T12:10:44.546Z,4.53
2023-02-21T12:13:21.076Z,2.90
2023-02-21T12:15:56.671Z,3.30
2023-02-21T12:18:23.507Z,1.83
2023-02-21T12:21:05.350Z,2.20
2023-02-21T12:23:32.131Z,1.90
2023-02-21T12:26:19.328Z,1.77
2023-02-21T12:28:54.340Z,2.10
2023-02-21T12:31:40.559Z,2.10
2023-02-21T12:34:10.497Z,2.27
2023-02-21T12:36:56.008Z,1.97
2023-02-21T12:39:28.055Z,4.10
2023-02-21T12:41:54.880Z,2.90
2023-02-21T12:44:28.643Z,3.17
2023-02-21T12:47:01.676Z,3.97
2023-02-21T12:49:31.420Z,4.37
2023-02-21T12:52:04.602Z,4.50
2023-02-21T12:54:34.546Z,4.57
2023-02-21T12:57:04.043Z,4.70
2023-02-21T12:59:31.029Z,3.80
2023-02-21T13:02:09.679Z,3.33
2023-02-21T13:04:43.288Z,3.30
2023-02-21T13:07:19.215Z,3.97
2023-02-21T13:09:50.098Z,4.67
2023-02-21T13:12:29.966Z,4.33
2023-02-21T13:15:15.875Z,2.80
2023-02-21T13:17:43.752Z,2.50
2023-02-21T13:20:18.102Z,2.63
2023-02-21T13:23:22.881Z,2.70
2023-02-21T13:26:21.316Z,2.60
2023-02-21T13:28:51.996Z,2.70
2023-02-21T13:31:20.807Z,1.80
2023-02-21T13:33:52.952Z,1.80
2023-02-21T13:36:30.973Z,2.37
2023-02-21T13:39:03.146Z,2.50
2023-02-21T13:41:33.587Z,2.30
2023-02-21T13:44:01.240Z,3.33
2023-02-21T13:46:31.138Z,2.80
2023-02-21T13:49:16.861Z,4.43
2023-02-21T13:51:53.278Z,4.30
2023-02-21T13:54:23.930Z,3.83
2023-02-21T13:56:51.820Z,5.63
2023-02-21T13:59:33.433Z,6.30
2023-02-21T14:02:35.757Z,5.47
2023-02-21T14:05:05.418Z,5.23
2023-02-21T14:07:48.787Z,3.83
2023-02-21T14:10:20.748Z,3.43
2023-02-21T14:12:51.906Z,2.10
2023-02-21T14:15:19.397Z,2.50
2023-02-21T14:17:47.707Z,2.27
2023-02-21T14:20:19.760Z,2.47
2023-02-21T14:22:50.072Z,1.73
2023-02-21T14:25:24.465Z,3.03
2023-02-21T14:27:54.204Z,1.70
2023-02-21T14:30:24.296Z,1.90
2023-02-21T14:32:52.881Z,1.90
2023-02-21T14:35:19.804Z,1.60
2023-02-21T14:37:55.073Z,2.27
2023-02-21T14:40:40.892Z,1.33
2023-02-21T14:43:16.869Z,1.70
2023-02-21T14:46:02.148Z,2.37
2023-02-21T14:48:45.916Z,1.53
2023-02-21T14:51:31.977Z,1.77
2023-02-21T14:54:09.680Z,1.63
2023-02-21T14:56:39.122Z,0.97
2023-02-21T14:59:06.023Z,1.47
2023-02-21T15:01:51.577Z,1.10
2023-02-21T15:04:21.558Z,1.30
2023-02-21T15:06:56.532Z,1.20
2023-02-21T15:09:23.428Z,1.40
2023-02-21T15:11:51.547Z,1.17
2023-02-21T15:14:23.687Z,1.00
2023-02-21T15:16:56.647Z,1.07
2023-02-21T15:19:29.418Z,1.10
2023-02-21T15:22:16.925Z,2.17
2023-02-21T15:24:59.044Z,2.00
2023-02-21T15:27:26.022Z,1.53
2023-02-21T15:30:14.097Z,1.70
2023-02-21T15:32:41.267Z,1.37
2023-02-21T15:35:12.692Z,1.40
2023-02-21T15:37:40.792Z,1.50
2023-02-21T15:40:14.535Z,1.70
2023-02-21T15:42:42.533Z,2.03
2023-02-21T15:45:12.583Z,1.80
2023-02-21T15:47:43.395Z,2.07
2023-02-21T15:50:25.749Z,5.27
2023-02-21T15:52:53.718Z,10.80
2023-02-21T15:55:21.014Z,15.37
2023-02-21T15:57:58.407Z,7.80
2023-02-21T16:00:28.280Z,7.53
2023-02-21T16:03:13.697Z,6.20
2023-02-21T16:05:40.988Z,6.70
2023-02-21T16:08:14.192Z,3.40
2023-02-21T16:10:41.624Z,3.03
2023-02-21T16:13:08.628Z,4.43
2023-02-21T16:15:36.191Z,1.50
2023-02-21T16:18:04.786Z,2.83
2023-02-21T16:20:35.680Z,3.80
2023-02-21T16:23:20.806Z,3.37
2023-02-21T16:25:58.443Z,2.80
2023-02-21T16:28:25.513Z,3.33
2023-02-21T16:30:52.959Z,2.40
2023-02-21T16:33:20.306Z,1.90
2023-02-21T16:35:47.252Z,4.40
2023-02-21T16:38:14.875Z,7.73
2023-02-21T16:40:42.054Z,3.60
2023-02-21T16:43:15.435Z,8.17
2023-02-21T16:45:43.232Z,3.90
2023-02-21T16:48:13.509Z,3.37
2023-02-21T16:50:40.876Z,2.47
2023-02-21T16:53:10.623Z,2.33
2023-02-21T16:55:37.698Z,2.90
2023-02-21T16:58:09.057Z,2.50
2023-02-21T17:00:35.956Z,2.57
2023-02-21T17:03:02.823Z,3.87
2023-02-21T17:05:29.769Z,3.67
2023-02-21T17:07:58.501Z,3.03
2023-02-21T17:10:25.389Z,2.50
2023-02-21T17:12:52.578Z,3.33
2023-02-21T17:15:21.816Z,2.70
2023-02-21T17:17:53.554Z,2.87
2023-02-21T17:20:21.471Z,2.70
2023-02-21T17:22:48.582Z,2.53
2023-02-21T17:25:16.029Z,2.37
2023-02-21T17:27:43.045Z,2.97
2023-02-21T17:30:10.318Z,3.67
2023-02-21T17:32:37.434Z,4.20
2023-02-21T17:35:04.988Z,2.90
2023-02-21T17:37:31.925Z,3.30
2023-02-21T17:39:58.730Z,3.63
2023-02-21T17:42:25.910Z,3.03
2023-02-21T17:44:53.478Z,6.23
2023-02-21T17:47:21.085Z,6.07
2023-02-21T17:49:49.413Z,6.87
2023-02-21T17:52:16.517Z,17.80
2023-02-21T17:54:43.530Z,14.47
2023-02-21T17:57:10.874Z,14.73
2023-02-21T17:59:38.278Z,3.00
2023-02-21T18:02:05.582Z,5.43
2023-02-21T18:04:32.544Z,4.13
2023-02-21T18:06:59.882Z,4.90
2023-02-21T18:09:26.695Z,4.67
2023-02-21T18:11:54.559Z,4.73
2023-02-21T18:14:22.084Z,4.47
2023-02-21T18:16:49.219Z,4.97
2023-02-21T18:19:16.456Z,5.17
2023-02-21T18:21:45.447Z,4.97
2023-02-21T18:24:13.769Z,4.20
2023-02-21T18:26:42.139Z,5.00
2023-02-21T18:29:09.469Z,5.10
2023-02-21T18:31:36.522Z,4.80
2023-02-21T18:34:04.230Z,5.47
2023-02-21T18:36:32.597Z,4.40
2023-02-21T18:39:00.942Z,5.23
2023-02-21T18:41:27.997Z,5.17
2023-02-21T18:43:55.052Z,7.17
2023-02-21T18:46:22.290Z,5.40
2023-02-21T18:48:50.211Z,12.57
2023-02-21T18:51:20.032Z,11.50
2023-02-21T18:53:48.275Z,6.10
2023-02-21T18:56:19.012Z,4.83
2023-02-21T18:58:46.415Z,3.97
2023-02-21T19:01:14.780Z,4.50
2023-02-21T19:03:41.979Z,16.60
2023-02-21T19:06:10.702Z,8.73
2023-02-21T19:08:37.654Z,12.80
2023-02-21T19:11:04.495Z,11.00
2023-02-21T19:13:31.355Z,11.73
2023-02-21T19:15:58.765Z,19.67
2023-02-21T19:18:25.703Z,5.13
2023-02-21T19:20:55.067Z,6.37
2023-02-21T19:23:22.521Z,7.30
2023-02-21T19:25:49.279Z,11.03
2023-02-21T19:28:16.151Z,7.23
2023-02-21T19:30:43.121Z,7.00
2023-02-21T19:33:10.261Z,8.57
2023-02-21T19:35:37.859Z,5.67
2023-02-21T19:38:05.887Z,6.13
2023-02-21T19:40:33.165Z,7.10
2023-02-21T19:43:00.160Z,8.13
2023-02-21T19:45:27.106Z,8.23
2023-02-21T19:47:54.065Z,11.73
2023-02-21T19:50:20.874Z,7.90
2023-02-21T19:52:58.858Z,7.80
2023-02-21T19:55:26.639Z,7.37
2023-02-21T19:57:53.520Z,13.90
2023-02-21T20:00:20.803Z,21.73
2023-02-21T20:02:49.281Z,24.70
2023-02-21T20:05:16.725Z,15.20
2023-02-21T20:07:43.745Z,13.33
2023-02-21T20:10:11.390Z,14.43
2023-02-21T20:12:38.321Z,14.73
2023-02-21T20:15:05.835Z,15.37
2023-02-21T20:17:35.014Z,14.83
2023-02-21T20:20:01.920Z,13.70
2023-02-21T20:22:34.032Z,13.10
2023-02-21T20:25:01.507Z,11.87
2023-02-21T20:27:28.449Z,15.97
2023-02-21T20:29:55.289Z,10.77
2023-02-21T20:32:22.298Z,9.87
2023-02-21T20:34:51.204Z,9.70
2023-02-21T20:37:19.364Z,10.20
2023-02-21T20:39:48.403Z,10.37
2023-02-21T20:42:15.722Z,9.33
2023-02-21T20:44:45.587Z,10.57
2023-02-21T20:47:12.556Z,9.17
2023-02-21T20:49:39.649Z,8.10
2023-02-21T20:52:06.538Z,7.70
2023-02-21T20:54:33.403Z,10.30
2023-02-21T20:57:00.993Z,10.43
2023-02-21T20:59:29.806Z,8.03
2023-02-21T21:01:58.139Z,8.43
2023-02-21T21:04:29.541Z,13.73
2023-02-21T21:06:57.900Z,18.37
2023-02-21T21:09:45.221Z,13.80
2023-02-21T21:12:17.418Z,12.97
2023-02-21T21:14:45.617Z,14.27
2023-02-21T21:17:15.241Z,12.17
2023-02-21T21:19:43.596Z,11.30
2023-02-21T21:22:11.828Z,11.57
2023-02-21T21:24:39.380Z,11.67
2023-02-21T21:27:10.310Z,11.40
2023-02-21T21:29:38.364Z,13.10
2023-02-21T21:32:06.113Z,14.87
2023-02-21T21:34:33.588Z,17.57
2023-02-21T21:37:02.033Z,20.13
2023-02-21T21:39:28.992Z,21.43
2023-02-21T21:41:58.756Z,17.70
2023-02-21T21:44:26.480Z,17.93
2023-02-21T21:46:54.508Z,18.83
2023-02-21T21:49:22.609Z,17.40
2023-02-21T21:51:50.019Z,15.57
2023-02-21T21:54:20.896Z,15.17
2023-02-21T21:56:48.511Z,17.03
2023-02-21T21:59:21.288Z,17.97
2023-02-21T22:01:51.808Z,18.50
2023-02-21T22:04:19.332Z,19.73
2023-02-21T22:06:46.717Z,17.57
2023-02-21T22:09:17.402Z,16.00
2023-02-21T22:11:48.366Z,13.93
2023-02-21T22:14:17.259Z,12.87
2023-02-21T22:16:45.046Z,13.10
2023-02-21T22:19:12.057Z,11.77
2023-02-21T22:21:38.924Z,10.40
2023-02-21T22:24:07.581Z,11.13
2023-02-21T22:26:34.795Z,11.10
2023-02-21T22:29:06.306Z,10.43
2023-02-21T22:31:33.945Z,10.63
2023-02-21T22:34:02.408Z,9.33
2023-02-21T22:36:31.296Z,8.23
2023-02-21T22:38:58.294Z,9.07
2023-02-21T22:41:26.978Z,10.27
2023-02-21T22:43:55.567Z,12.10
2023-02-21T22:46:23.650Z,8.73
2023-02-21T22:48:50.807Z,8.67
2023-02-21T22:51:18.581Z,7.97
2023-02-21T22:53:51.992Z,9.47
2023-02-21T22:56:23.793Z,9.27
2023-02-21T22:58:57.489Z,9.43
2023-02-21T23:01:28.339Z,9.30
2023-02-21T23:04:10.568Z,7.87
2023-02-21T23:06:37.958Z,10.97
2023-02-21T23:09:12.338Z,7.40
2023-02-21T23:11:40.758Z,8.60
2023-02-21T23:14:08.866Z,9.63
2023-02-21T23:16:35.737Z,9.07
2023-02-21T23:19:02.801Z,10.83
2023-02-21T23:21:30.743Z,9.13
2023-02-21T23:23:58.599Z,8.70
2023-02-21T23:26:25.555Z,9.67
2023-02-21T23:28:52.443Z,10.30
2023-02-21T23:31:20.408Z,10.83
2023-02-21T23:33:50.642Z,10.83
2023-02-21T23:36:22.970Z,8.57
2023-02-21T23:38:50.610Z,7.97
2023-02-21T23:41:18.257Z,8.27
2023-02-21T23:43:48.149Z,10.10
2023-02-21T23:46:22.501Z,10.63
2023-02-21T23:48:49.782Z,10.27
2023-02-21T23:51:18.002Z,11.90
2023-02-21T23:53:46.175Z,10.57
2023-02-21T23:56:13.870Z,9.60
2023-02-21T23:58:44.464Z,7.87
